Time;durP1;ratioP1;P1;durP2;ratioP2;P2;SDS_P1;SDS_P2;PMS_P1;PMS_P2;Temp;Humidity;BMP_temperature;BMP_pressure;BME280_temperature;BME280_humidity;BME280_pressure;Samples;Min_cycle;Max_cycle;Signal;HPM_P1;HPM_P2
2023/03/11 00:00:41;;;;;;;3.13;0.60;;;0.70;99.90;;;;;;4790289;29;20134;-88
2023/03/11 00:03:14;;;;;;;2.07;0.60;;;0.70;99.90;;;;;;4790596;29;20055;-88
2023/03/11 00:05:44;;;;;;;2.50;0.57;;;0.70;99.90;;;;;;4776064;29;20059;-88
2023/03/11 00:08:19;;;;;;;2.40;0.70;;;0.70;99.90;;;;;;4790719;29;20059;-88
2023/03/11 00:10:50;;;;;;;1.93;0.60;;;0.70;99.90;;;;;;4791051;29;20055;-88
2023/03/11 00:13:17;;;;;;;5.70;1.30;;;0.70;99.90;;;;;;4790519;29;20059;-88
2023/03/11 00:15:49;;;;;;;3.80;1.20;;;0.70;99.90;;;;;;4790422;29;20523;-89
2023/03/11 00:18:17;;;;;;;5.50;0.97;;;0.70;99.90;;;;;;4794956;29;20056;-88
2023/03/11 00:20:46;;;;;;;4.53;0.73;;;0.60;99.90;;;;;;4824207;29;20057;-89
2023/03/11 00:23:14;;;;;;;3.50;0.87;;;0.60;99.90;;;;;;4820548;29;20133;-89
2023/03/11 00:25:44;;;;;;;2.70;0.90;;;0.60;99.90;;;;;;4761680;29;20121;-89
2023/03/11 00:28:13;;;;;;;1.87;0.50;;;0.60;99.90;;;;;;4790590;29;20055;-89
2023/03/11 00:30:42;;;;;;;3.30;0.70;;;0.60;99.90;;;;;;4761595;29;20145;-89
2023/03/11 00:33:14;;;;;;;2.47;0.60;;;0.60;99.90;;;;;;4790584;29;20054;-89
2023/03/11 00:35:41;;;;;;;;;;;0.50;99.90;;;;;;4791125;29;20051;-89
2023/03/11 00:38:14;;;;;;;2.40;0.60;;;0.50;99.90;;;;;;4775389;29;20023;-89
2023/03/11 00:40:42;;;;;;;4.20;0.83;;;0.50;99.90;;;;;;4790355;29;20051;-88
2023/03/11 00:43:13;;;;;;;3.13;0.70;;;0.50;99.90;;;;;;4790903;29;20051;-89
2023/03/11 00:45:43;;;;;;;3.47;0.60;;;0.40;99.90;;;;;;4789595;29;20050;-89
2023/03/11 00:48:12;;;;;;;2.87;0.60;;;0.40;99.90;;;;;;4775947;29;20508;-89
2023/03/11 00:50:40;;;;;;;5.43;0.70;;;0.40;99.90;;;;;;4790409;29;20396;-89
2023/03/11 00:53:07;;;;;;;4.00;0.60;;;0.40;99.90;;;;;;4775880;29;20050;-89
2023/03/11 00:55:34;;;;;;;3.57;0.80;;;0.40;99.90;;;;;;4790603;29;20057;-89
2023/03/11 00:58:06;;;;;;;2.23;0.80;;;0.40;99.90;;;;;;4790536;29;20583;-88
2023/03/11 01:00:47;;;;;;;3.07;0.90;;;0.40;99.90;;;;;;4790937;29;20067;-89
2023/03/11 01:03:14;;;;;;;3.77;1.10;;;0.40;99.90;;;;;;4775879;29;20047;-89
2023/03/11 01:05:43;;;;;;;2.37;0.50;;;0.30;99.90;;;;;;4760836;29;20061;-89
2023/03/11 01:08:10;;;;;;;3.77;0.53;;;0.30;99.90;;;;;;4790626;29;20103;-88
2023/03/11 01:10:37;;;;;;;2.87;0.77;;;0.30;99.90;;;;;;4759043;30;20062;-89
2023/03/11 01:13:05;;;;;;;2.57;0.40;;;0.30;99.90;;;;;;4807207;29;20086;-89
2023/03/11 01:15:35;;;;;;;4.60;0.60;;;0.30;99.90;;;;;;4778811;29;20043;-89
2023/03/11 01:18:03;;;;;;;3.13;0.40;;;0.30;99.90;;;;;;4779237;29;20061;-88
2023/03/11 01:20:32;;;;;;;2.20;0.50;;;0.30;99.90;;;;;;4793841;29;20054;-89
2023/03/11 01:23:00;;;;;;;1.47;0.40;;;0.30;99.90;;;;;;4779022;29;20053;-89
2023/03/11 01:25:29;;;;;;;2.47;0.50;;;0.30;99.90;;;;;;4778862;29;20059;-89
2023/03/11 01:27:58;;;;;;;4.27;0.57;;;0.30;99.90;;;;;;4793569;29;20057;-89
2023/03/11 01:30:27;;;;;;;2.80;0.60;;;0.30;99.90;;;;;;4778668;29;20388;-89
2023/03/11 01:32:56;;;;;;;3.20;0.67;;;0.20;99.90;;;;;;4802256;29;20054;-89
2023/03/11 01:35:26;;;;;;;2.47;0.40;;;0.20;99.90;;;;;;4793395;29;20057;-89
2023/03/11 01:37:55;;;;;;;1.60;0.30;;;0.20;99.90;;;;;;4771654;29;20061;-89
2023/03/11 01:40:34;;;;;;;1.77;0.30;;;0.20;99.90;;;;;;4778930;29;20462;-89
2023/03/11 01:43:27;;;;;;;3.37;0.50;;;0.10;99.90;;;;;;4787105;29;20054;-89
2023/03/11 01:45:55;;;;;;;1.73;0.40;;;0.10;99.90;;;;;;4783041;29;20108;-89
2023/03/11 01:48:25;;;;;;;3.13;0.40;;;0.10;99.90;;;;;;4794074;29;20078;-90
2023/03/11 01:50:55;;;;;;;4.13;0.50;;;0.10;99.90;;;;;;4791998;29;20055;-89
2023/03/11 01:53:24;;;;;;;1.70;0.80;;;0.10;99.90;;;;;;4808227;29;20051;-89
2023/03/11 01:55:51;;;;;;;2.17;0.47;;;0.10;99.90;;;;;;4793393;29;20047;-89
2023/03/11 01:58:28;;;;;;;1.13;0.30;;;0.10;99.90;;;;;;4815095;29;20515;-89
2023/03/11 02:00:58;;;;;;;3.07;0.30;;;0.10;99.90;;;;;;4786687;29;20067;-89
2023/03/11 02:03:36;;;;;;;1.27;0.30;;;0.00;99.90;;;;;;4793958;29;20050;-89
2023/03/11 02:06:13;;;;;;;0.97;0.20;;;0.00;99.90;;;;;;4793469;29;20058;-89
2023/03/11 02:08:41;;;;;;;1.53;0.40;;;0.00;99.90;;;;;;4793217;29;20496;-89
2023/03/11 02:11:15;;;;;;;0.83;0.23;;;0.00;99.90;;;;;;4777752;29;20145;-90
2023/03/11 02:13:43;;;;;;;;;;;0.00;99.90;;;;;;4793742;29;20063;-89
2023/03/11 02:16:13;;;;;;;;;;;0.00;99.90;;;;;;4778547;29;19925;-91
2023/03/11 02:18:40;;;;;;;;;;;0.00;99.90;;;;;;4793286;29;19932;-89
2023/03/11 02:21:19;;;;;;;;;;;0.00;99.90;;;;;;4793627;29;19925;-90
2023/03/11 02:23:55;;;;;;;;;;;0.00;99.90;;;;;;4792764;29;20405;-89
2023/03/11 02:26:31;;;;;;;;;;;0.00;99.90;;;;;;4793184;29;19954;-89
2023/03/11 02:28:59;;;;;;;;;;;0.00;99.90;;;;;;4793052;29;20008;-88
2023/03/11 02:31:27;;;;;;;;;;;0.00;99.90;;;;;;4793197;29;19928;-89
2023/03/11 02:33:57;;;;;;;;;;;0.00;99.90;;;;;;4793338;29;19932;-89
2023/03/11 02:36:32;;;;;;;;;;;0.00;99.90;;;;;;4792923;29;20329;-89
2023/03/11 02:39:05;;;;;;;;;;;0.00;99.90;;;;;;4792955;29;19925;-89
2023/03/11 02:41:35;;;;;;;;;;;0.00;99.90;;;;;;4778361;29;20032;-89
2023/03/11 02:44:10;;;;;;;;;;;0.00;99.90;;;;;;4793155;29;20381;-89
2023/03/11 02:46:40;;;;;;;;;;;0.00;99.90;;;;;;4792904;29;20050;-89
2023/03/11 02:49:09;;;;;;;;;;;0.00;99.90;;;;;;4792745;29;19932;-89
2023/03/11 02:51:37;;;;;;;;;;;0.00;99.90;;;;;;4777971;29;19964;-89
2023/03/11 02:54:05;;;;;;;;;;;0.00;99.90;;;;;;4807681;29;20016;-86
2023/03/11 02:56:36;;;;;;;;;;;0.10;99.90;;;;;;4792693;29;19978;-86
2023/03/11 02:59:03;;;;;;;;;;;0.10;99.90;;;;;;4792690;29;20359;-86
2023/03/11 03:01:33;;;;;;;;;;;0.20;99.90;;;;;;4792986;29;19963;-87
2023/03/11 03:04:00;;;;;;;;;;;0.20;99.90;;;;;;4808492;29;20391;-86
2023/03/11 03:06:36;;;;;;;;;;;0.20;99.90;;;;;;4811226;29;20377;-87
2023/03/11 03:09:09;;;;;;;;;;;0.30;99.90;;;;;;4796060;29;19986;-87
2023/03/11 03:11:36;;;;;;;;;;;0.30;99.90;;;;;;4826088;29;20242;-87
2023/03/11 03:14:03;;;;;;;;;;;0.30;99.90;;;;;;4782271;29;19925;-87
2023/03/11 03:16:33;;;;;;;;;;;0.40;99.90;;;;;;4778527;29;19932;-86
2023/03/11 03:19:00;;;;;;;;;;;0.40;99.90;;;;;;4792766;29;19925;-87
2023/03/11 03:21:33;;;;;;;;;;;0.40;99.90;;;;;;4778200;29;19932;-87
2023/03/11 03:24:00;;;;;;;;;;;0.40;99.90;;;;;;4792595;29;19925;-86
2023/03/11 03:26:27;;;;;;;;;;;0.30;99.90;;;;;;4777799;29;19925;-87
2023/03/11 03:28:55;;;;;;;;;;;0.20;99.90;;;;;;4807641;29;19928;-86
2023/03/11 03:31:24;;;;;;;;;;;0.20;99.90;;;;;;4792738;29;19971;-86
2023/03/11 03:33:56;;;;;;;;;;;0.20;99.90;;;;;;4785288;29;19931;-87
2023/03/11 03:36:26;;;;;;;;;;;0.10;99.90;;;;;;4810932;29;19925;-87
2023/03/11 03:39:00;;;;;;;;;;;0.10;99.90;;;;;;4810456;29;19932;-86
2023/03/11 03:41:35;;;;;;;;;;;0.20;99.90;;;;;;4794367;29;20412;-87
2023/03/11 03:44:03;;;;;;;;;;;0.20;99.90;;;;;;4792844;29;20378;-87
2023/03/11 03:46:38;;;;;;;;;;;0.30;99.90;;;;;;4792408;29;20016;-87
2023/03/11 03:49:07;;;;;;;;;;;0.30;99.90;;;;;;4792048;29;20050;-86
2023/03/11 03:51:36;;;;;;;;;;;0.40;99.90;;;;;;4792582;29;19959;-87
2023/03/11 03:54:12;;;;;;;;;;;0.40;99.90;;;;;;4792141;29;19982;-87
2023/03/11 03:56:39;;;;;;;;;;;0.40;99.90;;;;;;4791860;29;19928;-87
2023/03/11 03:59:06;;;;;;;;;;;0.40;99.90;;;;;;4776934;29;19925;-87
2023/03/11 04:01:39;;;;;;;;;;;0.50;99.90;;;;;;4791541;29;19925;-86
2023/03/11 04:04:07;;;;;;;;;;;0.50;99.90;;;;;;4791943;29;19940;-87
2023/03/11 04:06:37;;;;;;;;;;;0.50;99.90;;;;;;4806485;29;19931;-87
2023/03/11 04:09:06;;;;;;;;;;;0.50;99.90;;;;;;4776868;29;19935;-86
2023/03/11 04:11:34;;;;;;;;;;;0.50;99.90;;;;;;4777457;29;19936;-86
2023/03/11 04:14:07;;;;;;;;;;;0.50;99.90;;;;;;4803226;29;19929;-87
2023/03/11 04:16:40;;;;;;;;;;;0.50;99.90;;;;;;4792013;29;20382;-87
2023/03/11 04:19:11;;;;;;;;;;;0.50;99.90;;;;;;4806371;29;19925;-87
2023/03/11 04:21:39;;;;;;;;;;;0.50;99.90;;;;;;4791497;29;20024;-87
2023/03/11 04:24:06;;;;;;;;;;;0.40;99.90;;;;;;4806780;29;19925;-87
2023/03/11 04:26:38;;;;;;;;;;;0.30;99.90;;;;;;4806325;29;19936;-87
2023/03/11 04:29:12;;;;;;;;;;;0.30;99.90;;;;;;4805629;29;19925;-86
2023/03/11 04:31:44;;;;;;;;;;;0.20;99.90;;;;;;4805119;29;19925;-88
2023/03/11 04:34:11;;;;;;;;;;;0.20;99.90;;;;;;4791397;29;19925;-88
2023/03/11 04:36:39;;;;;;;;;;;0.20;99.90;;;;;;4778328;29;19960;-88
2023/03/11 04:39:09;;;;;;;;;;;0.20;99.90;;;;;;4794142;29;19924;-88
2023/03/11 04:41:43;;;;;;;;;;;0.10;99.90;;;;;;4794710;29;20309;-87
2023/03/11 04:44:15;;;;;;;;;;;0.20;99.90;;;;;;4794666;29;19929;-88
2023/03/11 04:46:42;;;;;;;;;;;0.10;99.90;;;;;;4780498;29;19926;-87
2023/03/11 04:49:12;;;;;;;;;;;0.10;99.90;;;;;;4776777;30;19979;-88
2023/03/11 04:51:40;;;;;;;;;;;0.10;99.90;;;;;;4788616;29;19925;-87
2023/03/11 04:54:08;;;;;;;;;;;0.00;99.90;;;;;;4794570;29;19933;-87
2023/03/11 04:56:35;;;;;;;;;;;0.00;99.90;;;;;;4794662;29;20013;-88
2023/03/11 04:59:05;;;;;;;;;;;0.00;99.90;;;;;;4794922;29;19925;-87
2023/03/11 05:01:34;;;;;;;;;;;0.00;99.90;;;;;;4794289;29;19931;-87
2023/03/11 05:04:04;;;;;;;;;;;0.00;99.90;;;;;;4794406;29;19925;-88
2023/03/11 05:06:31;;;;;;;;;;;0.00;99.90;;;;;;4800277;29;19926;-88
2023/03/11 05:09:01;;;;;;;;;;;0.00;99.90;;;;;;4791542;29;20366;-88
2023/03/11 05:11:32;;;;;;;;;;;0.00;99.90;;;;;;4792454;29;19931;-87
2023/03/11 05:14:01;;;;;;;;;;;0.00;99.90;;;;;;4803511;29;19933;-87
2023/03/11 05:16:28;;;;;;;;;;;0.00;99.90;;;;;;4779000;29;19978;-87
2023/03/11 05:18:59;;;;;;;;;;;0.00;99.90;;;;;;4793794;29;20439;-87
2023/03/11 05:21:29;;;;;;;;;;;0.00;99.90;;;;;;4794222;29;20393;-87
2023/03/11 05:23:56;;;;;;;;;;;0.00;99.90;;;;;;4779239;29;19986;-87
2023/03/11 05:26:24;;;;;;;;;;;-0.10;99.90;;;;;;4793902;29;19944;-88
2023/03/11 05:28:52;;;;;;;;;;;-0.10;99.90;;;;;;4779241;29;20955;-88
2023/03/11 05:31:19;;;;;;;;;;;-0.20;99.90;;;;;;4779428;29;19925;-88
2023/03/11 05:33:49;;;;;;;;;;;-0.20;99.90;;;;;;4794085;29;20031;-88
2023/03/11 05:36:16;;;;;;;;;;;-0.20;99.90;;;;;;4795002;29;20409;-89
2023/03/11 05:38:44;;;;;;;;;;;-0.20;99.90;;;;;;4778740;29;19932;-88
2023/03/11 05:41:13;;;;;;;;;;;-0.30;99.90;;;;;;4779619;29;19925;-88
2023/03/11 05:43:43;;;;;;;;;;;-0.30;99.90;;;;;;4808226;29;19925;-88
2023/03/11 05:46:10;;;;;;;;;;;-0.30;99.90;;;;;;4764672;29;19961;-88
2023/03/11 05:48:38;;;;;;;;;;;-0.30;99.90;;;;;;4793861;29;19972;-88
2023/03/11 05:51:09;;;;;;;;;;;-0.30;99.90;;;;;;4765280;29;20374;-88
2023/03/11 05:53:47;;;;;;;;;;;-0.30;99.90;;;;;;4793425;29;19932;-88
2023/03/11 05:56:21;;;;;;;;;;;-0.30;99.90;;;;;;4806757;29;19925;-88
2023/03/11 05:58:50;;;;;;;;;;;-0.30;99.90;;;;;;4793449;29;19925;-88
2023/03/11 06:01:18;;;;;;;;;;;-0.40;99.90;;;;;;4793659;29;19925;-89
2023/03/11 06:03:49;;;;;;;;;;;-0.40;99.90;;;;;;4793830;29;19925;-88
2023/03/11 06:06:26;;;;;;;;;;;-0.40;99.90;;;;;;4807120;29;19950;-89
2023/03/11 06:08:55;;;;;;;;;;;-0.40;99.90;;;;;;4808388;29;20345;-88
2023/03/11 06:11:26;;;;;;;;;;;-0.40;99.90;;;;;;4779025;29;19931;-88
2023/03/11 06:13:54;;;;;;;;;;;-0.40;99.90;;;;;;4793190;29;19932;-88
2023/03/11 06:16:24;;;;;;;;;;;-0.40;99.90;;;;;;4778708;29;20028;-88
2023/03/11 06:18:52;;;;;;;;;;;-0.40;99.90;;;;;;4778728;29;19925;-88
2023/03/11 06:21:21;;;;;;;;;;;-0.40;99.90;;;;;;4778446;29;19925;-88
2023/03/11 06:23:51;;;;;;;;;;;-0.40;99.90;;;;;;4793205;29;20023;-88
2023/03/11 06:26:20;;;;;;;;;;;-0.40;99.90;;;;;;4803339;29;20304;-88
2023/03/11 06:28:47;;;;;;;;;;;-0.40;99.90;;;;;;4793276;29;20438;-88
2023/03/11 06:31:16;;;;;;;;;;;-0.40;99.90;;;;;;4808208;29;19925;-89
2023/03/11 06:33:43;;;;;;;;;;;-0.40;99.90;;;;;;4793043;29;19929;-87
2023/03/11 06:36:12;;;;;;;;;;;-0.30;99.90;;;;;;4807714;29;20354;-88
2023/03/11 06:38:39;;;;;;;;;;;-0.30;99.90;;;;;;4777944;29;20441;-88
2023/03/11 06:41:06;;;;;;;;;;;-0.30;99.90;;;;;;4807994;29;20385;-88
2023/03/11 06:43:37;;;;;;;;;;;-0.30;99.90;;;;;;4807966;29;19931;-89
2023/03/11 06:46:16;;;;;;;;;;;-0.20;99.90;;;;;;4792785;29;20302;-88
2023/03/11 06:48:50;;;;;;;;;;;-0.20;99.90;;;;;;4807610;29;20301;-88
2023/03/11 06:51:20;;;;;;;;;;;-0.20;99.90;;;;;;4792927;29;19925;-88
2023/03/11 06:53:51;;;;;;;;;;;-0.20;99.90;;;;;;4778111;29;19974;-88
2023/03/11 06:56:20;;;;;;;;;;;-0.10;99.90;;;;;;4792471;29;19925;-88
2023/03/11 06:58:55;;;;;;;;;;;-0.10;99.90;;;;;;4792585;29;19925;-88
2023/03/11 07:01:30;;;;;;;;;;;0.00;99.90;;;;;;4806978;29;19925;-88
2023/03/11 07:03:59;;;;;;;;;;;0.00;99.90;;;;;;4792277;29;19925;-88
2023/03/11 07:06:29;;;;;;;;;;;0.10;99.90;;;;;;4777625;29;19928;-88
2023/03/11 07:09:05;;;;;;;;;;;0.10;99.90;;;;;;4792161;29;19925;-88
2023/03/11 07:11:34;;;;;;;;;;;0.10;99.90;;;;;;4792229;29;19931;-88
2023/03/11 07:14:08;;;;;;;;;;;0.20;99.90;;;;;;4778212;29;19925;-88
2023/03/11 07:16:39;;;;;;;;;;;0.20;99.90;;;;;;4791967;29;20039;-88
2023/03/11 07:19:14;;;;;;;;;;;0.30;99.90;;;;;;4764313;29;19925;-88
2023/03/11 07:21:44;;;;;;;;;;;0.30;99.90;;;;;;4791815;29;19928;-88
2023/03/11 07:24:12;;;;;;;;;;;0.40;99.90;;;;;;4762078;29;19963;-89
2023/03/11 07:26:40;;;;;;;;;;;0.40;99.90;;;;;;4806734;29;19925;-87
2023/03/11 07:29:12;;;;;;;;;;;0.40;99.90;;;;;;4791644;29;19929;-88
2023/03/11 07:31:44;;;;;;;;;;;0.50;99.90;;;;;;4777292;29;19925;-88
2023/03/11 07:34:11;;;;;;;;;;;0.60;99.90;;;;;;4791169;29;19992;-87
2023/03/11 07:36:39;;;;;;;;;;;0.60;99.90;;;;;;4791206;29;19968;-87
2023/03/11 07:39:10;;;;;;;;;;;0.70;99.90;;;;;;4791375;29;19932;-86
2023/03/11 07:41:37;;;;;;;;;;;0.70;99.90;;;;;;4806322;29;20020;-87
2023/03/11 07:44:04;;;;;;;;;;;0.70;99.90;;;;;;4806473;29;19925;-86
2023/03/11 07:46:33;;;;;;;;;;;0.70;99.90;;;;;;4791976;29;19932;-88
2023/03/11 07:49:02;;;;;;;;;;;0.80;99.90;;;;;;4806043;29;19925;-87
2023/03/11 07:51:33;;;;;;;;;;;0.80;99.90;;;;;;4791244;29;19925;-88
2023/03/11 07:54:00;;;;;;;;;;;0.90;99.90;;;;;;4776419;29;20289;-87
2023/03/11 07:56:28;;;;;;;;;;;0.90;99.90;;;;;;4798422;29;20308;-87
2023/03/11 07:58:56;;;;;;;;;;;0.90;99.90;;;;;;4788962;29;19925;-87
2023/03/11 08:01:24;;;;;;;;;;;1.00;99.90;;;;;;4790894;29;19925;-87
2023/03/11 08:03:57;;;;;;;;;;;1.00;99.90;;;;;;4802575;29;19925;-87
2023/03/11 08:06:31;;;;;;;;;;;1.10;99.90;;;;;;4805840;29;20366;-88
2023/03/11 08:09:02;;;;;;;;;;;1.10;99.90;;;;;;4805336;29;20011;-87
2023/03/11 08:11:30;;;;;;;;;;;1.10;99.90;;;;;;4776133;29;19952;-88
2023/03/11 08:14:00;;;;;;;;;;;1.20;99.90;;;;;;4790996;29;19935;-87
2023/03/11 08:16:32;;;;;;;;;;;1.30;99.90;;;;;;4805311;29;20035;-87
2023/03/11 08:18:59;;;;;;;;;;;1.30;99.90;;;;;;4805712;29;19981;-88
2023/03/11 08:21:30;;;;;;;;;;;1.40;99.90;;;;;;4778441;29;19925;-87
2023/03/11 08:23:59;;;;;;;;;;;1.50;99.90;;;;;;4790771;29;19931;-87
2023/03/11 08:26:30;;;;;;;;;;;1.50;99.90;;;;;;4775559;29;19942;-87
2023/03/11 08:28:57;;;;;;;;;;;1.50;99.90;;;;;;4790241;29;20362;-87
2023/03/11 08:31:25;;;;;;;;;;;1.60;99.90;;;;;;4805440;29;19925;-87
2023/03/11 08:34:00;;;;;;;;;;;1.60;99.90;;;;;;4790583;29;20000;-88
2023/03/11 08:36:30;;;;;;;;;;;1.70;99.90;;;;;;4790992;29;19929;-89
2023/03/11 08:38:58;;;;;;;;;;;1.70;99.90;;;;;;4794581;29;19971;-89
2023/03/11 08:41:25;;;;;;;;;;;1.80;99.90;;;;;;4790578;29;19925;-87
2023/03/11 08:43:55;;;;;;;;;;;1.80;99.90;;;;;;4789445;29;20348;-87
2023/03/11 08:46:32;;;;;;;;;;;1.80;99.90;;;;;;4790408;29;19929;-88
2023/03/11 08:48:59;;;;;;;;;;;1.90;99.90;;;;;;4792328;29;19929;-88
2023/03/11 08:51:31;;;;;;;;;;;2.00;99.90;;;;;;4777027;29;19929;-88
2023/03/11 08:53:59;;;;;;;;;;;2.10;99.90;;;;;;4791111;29;19925;-89
2023/03/11 08:56:26;;;;;;;;;;;2.10;99.90;;;;;;4776077;29;19925;-90
2023/03/11 08:58:54;;;;;;;;;;;2.10;99.90;;;;;;4790057;29;19960;-87
2023/03/11 09:01:22;;;;;;;;;;;2.10;99.90;;;;;;4775435;29;19932;-86
2023/03/11 09:03:51;;;;;;;;;;;2.20;99.90;;;;;;4790008;29;19925;-87
2023/03/11 09:06:19;;;;;;;;;;;2.30;99.90;;;;;;4797737;29;19967;-87
2023/03/11 09:08:47;;;;;;;;;;;2.30;99.90;;;;;;4807856;29;19971;-87
2023/03/11 09:11:14;;;;;;;;;;;2.30;99.90;;;;;;4790102;29;19982;-87
2023/03/11 09:13:44;;;;;;;;;;;2.30;99.90;;;;;;4804809;29;19925;-87
2023/03/11 09:16:12;;;;;;;;;;;2.40;99.90;;;;;;4790058;29;19931;-87
2023/03/11 09:18:42;;;;;;;;;;;2.40;99.90;;;;;;4789878;29;19929;-86
2023/03/11 09:21:09;;;;;;;;;;;2.40;99.90;;;;;;4789854;29;20449;-88
2023/03/11 09:23:36;;;;;;;;;;;2.50;99.90;;;;;;4805295;29;20040;-86
2023/03/11 09:26:03;;;;;;;;;;;2.50;99.90;;;;;;4789695;29;19933;-86
2023/03/11 09:28:30;;;;;;;;;;;2.50;99.90;;;;;;4775423;29;19925;-87
2023/03/11 09:30:57;;;;;;;;;;;2.60;99.90;;;;;;4789910;29;20011;-87
2023/03/11 09:33:24;;;;;;;;;;;2.60;99.90;;;;;;4778171;29;20035;-90
2023/03/11 09:35:52;;;;;;;;;;;2.70;99.90;;;;;;4794803;29;19924;-87
2023/03/11 09:38:19;;;;;;;;;;;2.80;99.90;;;;;;4779083;29;19968;-87
2023/03/11 09:41:00;;;;;;;;;;;2.90;99.90;;;;;;4808863;29;19964;-87
2023/03/11 09:43:46;;;;;;;;;;;3.00;99.90;;;;;;4793968;29;19950;-92
2023/03/11 09:46:13;;;;;;;;;;;3.10;99.90;;;;;;4794319;29;19947;-91
2023/03/11 09:49:07;;;;;;;;;;;3.10;99.90;;;;;;4794545;29;19925;-91
2023/03/11 09:51:38;;;;;;;;;;;3.10;99.90;;;;;;4795137;29;19928;-86
2023/03/11 09:54:09;;;;;;;;;;;3.10;99.90;;;;;;4778958;29;19925;-89
2023/03/11 09:56:41;;;;;;;;;;;3.30;99.90;;;;;;4794321;29;19925;-90
2023/03/11 09:59:15;;;;;;;;;;;3.40;99.90;;;;;;4779034;29;19982;-86
2023/03/11 10:01:43;;;;;;;;;;;3.40;99.90;;;;;;4793158;29;19964;-89
2023/03/11 10:04:49;;;;;;;;;;;3.50;99.90;;;;;;4778898;29;19991;-87
2023/03/11 10:07:21;;;;;;;;;;;3.60;99.90;;;;;;4776365;30;19926;-85
2023/03/11 10:10:15;;;;;;;;;;;3.60;99.90;;;;;;4778871;30;19987;-86
2023/03/11 10:12:42;;;;;;;;;;;3.60;99.70;;;;;;4785189;29;19925;-88
2023/03/11 10:15:18;;;;;;;;;;;3.60;99.70;;;;;;4792572;29;19925;-86
2023/03/11 10:18:06;;;;;;;;;;;3.60;99.50;;;;;;4807795;29;19929;-91
2023/03/11 10:20:34;;;;;;;;;;;3.60;99.50;;;;;;4778747;29;19925;-87
2023/03/11 10:23:05;;;;;;;;;;;3.60;99.40;;;;;;4791947;29;19925;-86
2023/03/11 10:25:41;;;;;;;;;;;3.70;99.40;;;;;;4793961;29;19974;-91
2023/03/11 10:28:15;;;;;;;;;;;3.80;99.30;;;;;;4792384;29;19929;-86
2023/03/11 10:30:45;;;;;;;;;;;3.90;98.90;;;;;;4806991;29;19925;-86
2023/03/11 10:33:17;;;;;;;;;;;4.00;99.00;;;;;;4793694;29;19925;-86
2023/03/11 10:35:49;;;;;;;;;;;4.10;98.90;;;;;;4810056;29;19934;-86
2023/03/11 10:38:41;;;;;;;;;;;4.30;98.80;;;;;;4808543;29;20032;-85
2023/03/11 10:41:29;;;;;;;;;;;4.30;98.70;;;;;;4787622;29;19929;-84
2023/03/11 10:44:00;;;;;;;;;;;4.40;98.60;;;;;;4793960;29;20024;-87
2023/03/11 10:46:28;;;;;;;;;;;4.40;98.70;;;;;;4792565;29;19936;-90
2023/03/11 10:48:55;;;;;;;;;;;4.40;98.70;;;;;;4792982;29;19928;-89
2023/03/11 10:51:30;;;;;;;;;;;4.40;98.80;;;;;;4807621;29;19931;-90
2023/03/11 10:54:00;;;;;;;;;;;4.40;98.70;;;;;;4792206;29;19949;-87
2023/03/11 10:56:32;;;;;;;;;;;4.40;98.70;;;;;;4792633;29;19935;-87
2023/03/11 10:59:00;;;;;;;;;;;4.50;98.60;;;;;;4792265;29;19924;-90
2023/03/11 11:01:30;;;;;;;;;;;4.50;98.30;;;;;;4792695;29;19975;-89
2023/03/11 11:03:59;;;;;;;;;;;4.50;98.10;;;;;;4807343;29;19929;-89
2023/03/11 11:06:31;;;;;;;;;;;4.50;97.90;;;;;;4777770;29;20405;-88
2023/03/11 11:09:14;;;;;;;;;;;4.50;98.00;;;;;;4807713;29;19924;-91
2023/03/11 11:11:58;;;;;;;;;;;4.50;98.10;;;;;;4794662;29;19950;-87
2023/03/11 11:14:40;;;;;;;;;;;4.50;97.80;;;;;;4793179;29;20361;-87
2023/03/11 11:17:18;;;;;;;;;;;4.50;97.70;;;;;;4790370;29;19983;-88
2023/03/11 11:19:46;;;;;;;;;;;4.60;97.60;;;;;;4801424;29;19940;-88
2023/03/11 11:22:16;;;;;;;;;;;4.60;97.20;;;;;;4790932;29;19990;-88
2023/03/11 11:24:44;;;;;;;;;;;4.60;97.30;;;;;;4788154;29;19929;-88
2023/03/11 11:27:14;;;;;;;;;;;4.70;97.10;;;;;;4796399;29;19925;-88
2023/03/11 11:29:41;;;;;;;;;;;4.70;96.40;;;;;;4806595;29;19931;-88
2023/03/11 11:32:17;;;;;;;;;;;4.80;96.40;;;;;;4777021;29;20302;-88
2023/03/11 11:34:54;;;;;;;;;;;4.80;96.30;;;;;;4806038;29;19931;-88
2023/03/11 11:37:25;;;;;;;;;;;4.80;96.30;;;;;;4806014;29;19958;-88
2023/03/11 11:39:55;;;;;;;;;;;4.80;96.60;;;;;;4776896;29;19925;-89
2023/03/11 11:42:27;;;;;;;;;;;4.80;96.50;;;;;;4791449;29;19924;-88
2023/03/11 11:45:01;;;;;;;;;;;4.70;96.70;;;;;;4791410;29;19924;-87
2023/03/11 11:47:34;;;;;;;;;;;4.70;96.90;;;;;;4791267;29;19925;-89
2023/03/11 11:50:09;;;;;;;;;;;4.70;97.00;;;;;;4791641;29;20408;-89
2023/03/11 11:52:43;;;;;;;;;;;4.60;97.10;;;;;;4798458;29;19925;-90
2023/03/11 11:55:20;;;;;;;;;;;4.60;97.20;;;;;;4791537;29;19925;-88
2023/03/11 11:57:47;;;;;;;;;;;4.70;97.20;;;;;;4805209;29;19925;-89
2023/03/11 12:00:37;;;;;;;;;;;4.70;96.80;;;;;;4786410;29;19933;-89
2023/03/11 12:03:18;;;;;;;;;;;4.80;96.10;;;;;;4791248;29;19969;-88
2023/03/11 12:05:56;;;;;;;;;;;4.90;95.00;;;;;;4818449;29;20427;-86
2023/03/11 12:08:48;;;;;;;;;;;5.00;94.70;;;;;;4806187;29;19925;-88
2023/03/11 12:11:23;;;;;;;;;;;5.10;94.10;;;;;;4788164;29;19925;-89
2023/03/11 12:13:59;;;;;;;;;;;5.20;93.80;;;;;;4806948;29;19929;-89
2023/03/11 12:16:46;;;;;;;;;;;5.30;93.20;;;;;;4809223;29;19925;-89
2023/03/11 12:19:40;;;;;;;;;;;5.30;92.80;;;;;;4809205;29;20430;-89
2023/03/11 12:22:26;;;;;;;;;;;5.20;92.40;;;;;;4770223;30;19925;-87
2023/03/11 12:25:11;;;;;;;;;;;5.20;92.60;;;;;;4803018;29;20020;-87
2023/03/11 12:27:41;;;;;;;;;;;5.20;92.20;;;;;;4790736;29;19929;-89
2023/03/11 12:30:17;;;;;;;;;;;5.20;92.00;;;;;;4792423;29;19925;-90
2023/03/11 12:32:52;;;;;;;;;;;5.20;92.40;;;;;;4801120;29;19925;-88
2023/03/11 12:35:25;;;;;;;;;;;5.20;92.20;;;;;;4800945;29;20031;-89
2023/03/11 12:38:11;;;;;;;;;;;5.20;91.90;;;;;;4770805;29;19925;-92
2023/03/11 12:40:41;;;;;;;;;;;5.10;91.90;;;;;;4776111;29;19925;-90
2023/03/11 12:43:24;;;;;;;;;;;5.10;91.60;;;;;;4790352;29;19925;-86
2023/03/11 12:46:34;;;;;;;;;;;5.10;91.90;;;;;;4782799;29;19925;-96
2023/03/11 12:49:12;;;;;;;;;;;5.20;91.90;;;;;;4777227;29;19982;-90
2023/03/11 12:51:40;;;;;;;;;;;5.20;91.70;;;;;;4787483;30;20020;-89
2023/03/11 12:54:26;;;;;;;;;;;5.20;91.80;;;;;;4793400;29;19932;-88
2023/03/11 12:56:55;;;;;;;;;;;5.30;91.40;;;;;;4805080;29;19932;-86
2023/03/11 12:59:28;;;;;;;;;;;5.20;92.00;;;;;;4775159;29;19925;-84
2023/03/11 13:02:15;;;;;;;;;;;5.10;92.20;;;;;;4775788;29;19978;-88
2023/03/11 13:04:47;;;;;;;;;;;5.10;92.40;;;;;;4790054;29;20301;-86
2023/03/11 13:07:32;;;;;;;;;;;5.20;91.50;;;;;;4806851;29;20016;-85
2023/03/11 13:10:06;;;;;;;;;;;5.20;90.70;;;;;;4808386;29;19925;-85
2023/03/11 13:12:36;;;;;;;;;;;5.20;90.80;;;;;;4808671;29;20015;-88
2023/03/11 13:15:17;;;;;;;;;;;5.30;90.90;;;;;;4781459;29;19925;-85
2023/03/11 13:17:56;;;;;;;;;;;5.30;90.40;;;;;;4793392;29;19994;-86
2023/03/11 13:20:41;;;;;;;;;;;5.20;90.90;;;;;;4821933;29;20263;-86
2023/03/11 13:23:20;;;;;;;;;;;5.20;90.50;;;;;;4811354;29;20413;-85
2023/03/11 13:25:48;;;;;;;;;;;5.20;91.10;;;;;;4793118;29;20397;-86
2023/03/11 13:28:23;;;;;;;;;;;5.20;90.70;;;;;;4808247;29;19968;-86
2023/03/11 13:31:08;;;;;;;;;;;5.20;90.90;;;;;;4793478;29;20020;-85
2023/03/11 13:33:44;;;;;;;;;;;5.20;90.90;;;;;;4808332;29;19925;-84
2023/03/11 13:36:29;;;;;;;;;;;5.20;90.30;;;;;;4793265;29;20362;-87
2023/03/11 13:39:23;;;;;;;;;;;5.30;88.30;;;;;;4788003;29;19948;-88
2023/03/11 13:41:50;;;;;;;;;;;5.40;89.20;;;;;;4805771;29;21619;-87
2023/03/11 13:44:23;;;;;;;;;;;5.50;88.30;;;;;;4793593;29;19925;-87
2023/03/11 13:47:11;;;;;;;;;;;5.60;88.80;;;;;;4793822;29;19925;-88
2023/03/11 13:49:49;;;;;;;;;;;5.60;87.50;;;;;;4789917;29;19933;-87
2023/03/11 13:52:20;;;;;;;;;;;5.70;86.50;;;;;;4808087;29;19940;-88
2023/03/11 13:54:51;;;;;;;;;;;5.80;83.60;;;;;;4792943;29;20015;-88
2023/03/11 13:57:22;;;;;;;;;;;5.80;84.70;;;;;;4794293;29;19931;-85
2023/03/11 13:59:54;;;;;;;;;;;5.80;83.80;;;;;;4793299;29;19925;-92
2023/03/11 14:02:27;;;;;;;;;;;5.80;85.50;;;;;;4793884;29;19929;-87
2023/03/11 14:04:59;;;;;;;;;;;5.80;85.10;;;;;;4788582;29;19971;-93
2023/03/11 14:07:33;;;;;;;;;;;5.80;85.30;;;;;;4799862;29;19925;-87
2023/03/11 14:10:18;;;;;;;;;;;5.90;85.20;;;;;;4788774;29;20421;-86
2023/03/11 14:12:45;;;;;;;;;;;6.00;83.80;;;;;;4815478;29;19929;-85
2023/03/11 14:15:22;;;;;;;;;;;6.00;82.20;;;;;;4791192;29;19925;-84
2023/03/11 14:17:50;;;;;;;;;;;6.10;83.10;;;;;;4793365;29;20013;-86
2023/03/11 14:20:23;;;;;;;;;;;6.10;82.50;;;;;;4777678;29;19933;-88
2023/03/11 14:22:54;;;;;;;;;;;6.10;83.20;;;;;;4792172;29;19932;-86
2023/03/11 14:25:23;;;;;;;;;;;6.10;83.20;;;;;;4777644;29;19925;-83
2023/03/11 14:27:52;;;;;;;;;;;6.10;83.00;;;;;;4807037;29;19933;-85
2023/03/11 14:30:21;;;;;;;;;;;6.10;83.20;;;;;;4809449;29;19941;-84
2023/03/11 14:32:55;;;;;;;;;;;6.20;81.10;;;;;;4795849;29;19967;-85
2023/03/11 14:35:22;;;;;;;;;;;6.20;80.40;;;;;;4789333;29;20032;-83
2023/03/11 14:37:49;;;;;;;;;;;6.30;81.70;;;;;;4788785;29;19975;-84
2023/03/11 14:40:19;;;;;;;;;;;6.30;80.00;;;;;;4788468;30;19932;-83